Latest Coastal Weather Observations for Yamba

IDN60701

Issued at 4:52 pm EDT Tuesday 19 January 2021 (issued every 10 minutes, with the page automatically refreshed every 10 minutes)

About coastal observations | Map of coastal stations | Coastal observations for NSW | Marine services | Other Formats
Station Details ID: 058012 Name: YAMBA PILOT STATION Lat: -29.43 Lon: 153.36 Height: 27.4 m
Data from the previous 72 hours. | See also: Recent months at Yamba
Date/Time
EDT
Wind Sea
Height
m
Swell Vis
km
Cloud Weather Temp
°C
Press
MSL
hPa
Rain since
9am
mm
Dir  Spd
kts
Gust
kts
Height
m
Period
s
Dir
19/04:30pm SSE 10 14 - - - - - - - 26.7 1012.7 0.0
19/04:00pm SSE 12 16 - - - - - - - 26.4 1012.8 0.0
19/03:30pm SSE 10 15 - - - - - - - 26.6 1012.8 0.0
19/03:00pm SSE 10 14 - - - - - - - 27.5 1013.0 0.0
19/02:30pm SSE 10 12 - - - - - - - 27.8 1013.0 0.0
19/02:00pm SSE 10 14 - - - - - - - 27.8 1012.8 0.0
19/01:30pm SE 9 11 - - - - - - - 27.8 1012.9 0.0
19/01:00pm SE 6 9 - - - - - - - 27.5 1012.9 0.0
19/12:30pm ESE 5 7 - - - - - - - 27.3 1013.1 0.0
19/12:00pm ESE 5 6 - - - - - - - 27.0 1013.1 0.0
19/11:30am ESE 5 7 - - - - - - - 27.0 1013.1 0.0
19/11:00am NNW 4 6 - - - - - - - 27.3 1012.9 0.0
19/10:30am NNW 5 7 - - - - - - - 26.7 1012.9 0.0
19/10:00am NNW 5 7 - - - - - - - 26.0 1012.9 0.0
19/09:30am NW 5 8 - - - - - - - 24.8 1013.1 0.0
19/09:00am NNW 6 8 - - - - - - - 23.2 1013.1 5.6
19/08:30am NNW 5 7 - - - - - - - 22.4 1013.0 5.6
19/08:00am NNW 5 7 - - - - - - - 21.3 1013.1 5.6
19/07:30am NNW 5 7 - - - - - - - 20.6 1012.9 5.6
19/07:00am NNW 4 5 - - - - - - - 20.0 1012.5 5.6
19/06:30am NNW 4 7 - - - - - - - 19.7 1012.3 5.6
19/06:00am WNW 4 5 - - - - - - - 19.5 1011.7 5.6
19/05:30am WNW 4 6 - - - - - - - 19.8 1011.7 5.6
19/05:00am WSW 3 6 - - - - - - - 19.8 1011.1 5.6
19/04:30am WNW 5 7 - - - - - - - 19.8 1011.5 5.6
19/04:00am W 5 7 - - - - - - - 20.0 1011.3 5.6
19/03:30am WNW 6 8 - - - - - - - 19.8 1011.6 5.6
19/03:00am NW 6 9 - - - - - - - 19.8 1011.8 5.6
19/02:30am WNW 7 10 - - - - - - - 19.8 1012.1 5.6
19/02:00am WNW 6 9 - - - - - - - 19.9 1012.5 5.6
19/01:30am WNW 7 10 - - - - - - - 20.0 1012.8 5.6
19/01:00am W 6 9 - - - - - - - 20.3 1013.5 5.6
19/12:30am W 6 10 - - - - - - - 20.5 1013.9 5.6
19/12:00am WSW 7 11 - - - - - - Recent precip. 20.5 1013.7 5.4
 
Date/Time
EDT
Wind Sea
Height
m
Swell Vis
km
Cloud Weather Temp
°C
Press
MSL
hPa
Rain since
9am
mm
Dir  Spd
kts
Gust
kts
Height
m
Period
s
Dir
18/11:30pm N 7 13 - - - - - - - 20.8 1013.7 5.4
18/11:00pm N 8 13 - - - - - - - 20.8 1014.1 5.2
18/10:30pm NNW 8 13 - - - - - - - 20.9 1014.0 4.2
18/10:00pm N 8 12 - - - - - - - 21.0 1014.1 4.0
18/09:30pm NNW 10 15 - - - - - - - 21.2 1014.4 3.8
18/09:00pm NNW 7 9 - - - - - - Recent precip. 21.2 1013.7 3.6
18/08:30pm NNW 7 11 - - - - - - - 21.3 1013.6 3.4
18/08:00pm NNW 8 12 - - - - - - - 21.6 1013.9 3.0
18/07:30pm NNW 7 11 - - - - - - - 21.9 1014.2 2.2
18/07:00pm NW 7 11 - - - - - - - 22.5 1014.3 1.4
18/06:30pm NW 7 9 - - - - - - - 23.0 1013.2 0.6
18/06:00pm NNW 9 11 - - - - - - - 23.2 1011.2 0.6
18/05:30pm NNW 7 9 - - - - - - - 23.6 1011.6 0.6
18/05:00pm NNW 8 13 - - - - - - - 23.5 1012.2 0.6
18/04:30pm N 8 13 - - - - - - - 23.9 1012.0 0.6
18/04:00pm N 7 13 - - - - - - - 24.0 1011.9 0.6
18/03:30pm N 7 13 - - - - - - - 24.4 1011.8 0.6
18/03:00pm N 5 7 - - - - - - Rain 25.0 1012.5 0.4
18/02:30pm NNE 4 6 - - - - - - - 25.5 1013.3 0.2
18/02:00pm NNE 6 9 - - - - - - - 26.4 1013.1 0.2
18/01:30pm NNE 5 9 - - - - - - - 27.2 1013.1 0.2
18/01:00pm NNE 5 9 - - - - - - - 28.0 1013.5 0.2
18/12:30pm NNE 6 8 - - - - - - - 28.3 1013.7 0.2
18/12:00pm NNE 5 8 - - - - - - - 27.9 1014.2 0.2
18/11:30am NNE 5 8 - - - - - - - 27.5 1014.5 0.2
18/11:00am NE 4 6 - - - - - - - 26.9 1014.5 0.2
18/10:30am E 3 5 - - - - - - - 25.1 1014.8 0.2
18/10:00am SE 2 4 - - - - - - - 24.0 1015.1 0.0
18/09:30am SE 3 4 - - - - - - - 24.1 1015.0 0.0
18/09:00am SE 2 3 - - - - - - - 24.7 1015.0 0.0
18/08:30am SSE 3 5 - - - - - - - 25.5 1014.6 0.0
18/08:00am W 4 5 - - - - - - - 23.6 1014.8 0.0
18/07:30am W 4 6 - - - - - - - 23.3 1014.8 0.0
18/07:00am NNW 2 4 - - - - - - - 23.3 1014.4 0.0
18/06:30am CALM 0 4 - - - - - - - 22.7 1014.0 0.0
18/06:00am NNE 2 4 - - - - - - - 22.6 1013.6 0.0
18/05:30am NNE 3 5 - - - - - - - 22.3 1013.3 0.0
18/05:00am NE 4 5 - - - - - - - 22.5 1013.0 0.0
18/04:30am NE 3 4 - - - - - - - 22.6 1012.9 0.0
18/04:00am E 3 4 - - - - - - - 22.8 1012.8 0.0
18/03:30am NNE 3 4 - - - - - - - 22.9 1013.1 0.0
18/03:00am NNE 2 4 - - - - - - - 22.7 1013.2 0.0
18/02:30am NNE 2 4 - - - - - - - 22.9 1013.3 0.0
18/02:00am N 3 5 - - - - - - - 23.2 1013.4 0.0
18/01:30am N 3 6 - - - - - - - 23.2 1013.4 0.0
18/01:00am NE 6 8 - - - - - - - 23.5 1013.6 0.0
18/12:30am ENE 6 9 - - - - - - - 23.4 1013.7 0.0
18/12:00am NE 6 9 - - - - - - - 23.5 1014.0 0.0
 
Date/Time
EDT
Wind Sea
Height
m
Swell Vis
km
Cloud Weather Temp
°C
Press
MSL
hPa
Rain since
9am
mm
Dir  Spd
kts
Gust
kts
Height
m
Period
s
Dir
17/11:30pm NE 6 9 - - - - - - - 23.7 1014.2 0.0
17/11:00pm ENE 8 10 - - - - - - - 23.7 1014.3 0.0
17/10:30pm ENE 7 11 - - - - - - - 23.6 1014.2 0.0
17/10:00pm NE 6 8 - - - - - - - 23.6 1014.3 0.0
17/09:30pm NE 6 10 - - - - - - - 23.5 1013.8 0.0
17/09:00pm NE 7 10 - - - - - - - 23.7 1013.6 0.0
17/08:30pm ENE 8 11 - - - - - - - 23.7 1013.3 0.0
17/08:00pm ENE 8 12 - - - - - - - 23.8 1013.1 0.0
17/07:30pm ENE 8 12 - - - - - - - 23.9 1012.6 0.0
17/07:00pm ENE 8 11 - - - - - - - 24.0 1012.4 0.0
17/06:30pm NE 7 13 - - - - - - - 25.1 1012.2 0.0
17/06:00pm NE 8 12 - - - - - - - 25.7 1012.0 0.0
17/05:30pm ENE 8 12 - - - - - - - 25.5 1011.9 0.0
17/05:00pm NE 7 12 - - - - - - - 25.9 1012.1 0.0
17/04:30pm ENE 8 12 - - - - - - - 26.2 1012.3 0.0
17/04:00pm ENE 7 12 - - - - - - - 27.1 1012.3 0.0
17/03:30pm ENE 9 13 - - - - - - - 26.6 1012.5 0.0
17/03:00pm ENE 8 12 - - - - - - - 27.0 1012.7 0.0
17/02:30pm NE 7 13 - - - - - - - 26.9 1013.0 0.0
17/02:00pm NE 7 12 - - - - - - - 27.2 1013.1 0.0
17/01:30pm NE 7 12 - - - - - - - 27.7 1013.1 0.0
17/01:00pm NE 7 10 - - - - - - - 27.4 1013.3 0.0
17/12:30pm NE 5 9 - - - - - - - 27.5 1013.7 0.0
17/12:00pm NE 6 11 - - - - - - - 26.7 1013.7 0.0
17/11:30am NE 5 9 - - - - - - - 27.0 1013.9 0.0
17/11:00am NE 4 6 - - - - - - - 26.3 1014.1 0.0
17/10:30am NE 4 6 - - - - - - - 26.2 1014.1 0.0
17/10:00am NE 3 5 - - - - - - - 25.3 1014.1 0.0
17/09:30am NNW 5 6 - - - - - - - 24.9 1014.0 0.0
17/09:00am W 4 5 - - - - - - - 23.9 1014.1 0.0
17/08:30am W 4 5 - - - - - - - 23.2 1014.2 0.0
17/08:00am WSW 4 6 - - - - - - - 21.7 1014.2 0.0
17/07:30am WSW 5 7 - - - - - - - 20.5 1014.0 0.0
17/07:00am SW 5 7 - - - - - - - 20.2 1013.5 0.0
17/06:30am SW 6 7 - - - - - - - 19.6 1013.4 0.0
17/06:00am WSW 4 6 - - - - - - - 19.0 1013.1 0.0
17/05:30am W 5 6 - - - - - - - 19.1 1012.7 0.0
17/05:00am WSW 6 7 - - - - - - - 19.1 1012.4 0.0
17/04:30am WNW 6 6 - - - - - - - 19.2 1012.4 0.0
17/04:00am SW 5 6 - - - - - - - 19.9 1012.1 0.0
17/03:30am SW 4 6 - - - - - - - 20.0 1012.1 0.0
17/03:00am SW 4 5 - - - - - - - 20.4 1012.2 0.0
17/02:30am SW 4 5 - - - - - - - 21.0 1012.2 0.0
17/02:00am SSW 3 4 - - - - - - - 21.0 1012.4 0.0
17/01:30am CALM 0 0 - - - - - - - 21.4 1012.6 0.0
17/01:00am ESE 3 5 - - - - - - - 22.0 1012.7 0.0
17/12:30am SE 3 5 - - - - - - - 22.6 1012.7 0.0
17/12:00am ESE 4 5 - - - - - - - 22.8 1013.0 0.0
 
Date/Time
EDT
Wind Sea
Height
m
Swell Vis
km
Cloud Weather Temp
°C
Press
MSL
hPa
Rain since
9am
mm
Dir  Spd
kts
Gust
kts
Height
m
Period
s
Dir
16/11:30pm ESE 5 6 - - - - - - - 22.7 1012.9 0.0
16/11:00pm ESE 6 8 - - - - - - - 22.8 1012.9 0.0
16/10:30pm ESE 6 9 - - - - - - - 23.0 1012.9 0.0
16/10:00pm ESE 6 9 - - - - - - - 23.0 1012.8 0.0
16/09:30pm ESE 7 10 - - - - - - - 23.2 1012.4 0.0
16/09:00pm SE 7 11 - - - - - - - 23.2 1011.9 0.0
16/08:30pm SE 9 14 - - - - - - - 23.2 1011.5 0.0
16/08:00pm SE 10 14 - - - - - - - 23.2 1011.0 0.0
16/07:30pm SE 12 15 - - - - - - - 23.4 1010.4 0.0
16/07:00pm SE 13 17 - - - - - - - 23.6 1010.1 0.0
16/06:30pm SE 9 12 - - - - - - - 23.7 1009.4 0.0
16/06:00pm SE 9 11 - - - - - - - 24.4 1008.8 0.0
16/05:30pm SE 11 13 - - - - - - - 24.7 1008.4 0.0
16/05:00pm SE 12 16 - - - - - - - 25.6 1008.0 0.0

Other formats

Comma delimited format used in spreadsheet applications
http://www.bom.gov.au/fwo/IDN60701/IDN60701.94589.axf

JavaScript Object Notation format (JSON) in row-major order
http://www.bom.gov.au/fwo/IDN60701/IDN60701.94589.json

Data quality

Most of these data are generated automatically and are frequently updated. Quality checks on data are not normally performed. It is possible for incorrect values to appear. Refer to information at About Latest Weather Observations and please check the disclaimer before using these data.